Hauptseite
METAR-TAF:

METAR-TAF

Flughäfen :

Lyon, Frankreich

Breite: 45-43N, Länge: 004-57E, Höhe: 200 m

Beobachtung

Neuester Wetterbericht von vor 29 Minuten, um 13:00 UTC
Wind 10 kt aus Nord/Nordwest, variierte zwischen West/Nordwest und Nord
Temperatur 29°C
Luftfeuchtigkeit 37%
Luftdruck 1017 hPa
Sichtweite 10 km oder mehr
keine Wolken unter 1500 m und keine Kumulonimbus oder Gewitterwolken

METAR: LFLY 171300Z AUTO 34010KT 290V010 CAVOK 29/13 Q1017 NOSIG

Zeit: 15:29 (13:29 UTC)

Prognose

Neuester Wetterbericht von vor 2 Stunden und 29 Minuten, um 11:00 UTC
Gültige Prognose vom 17 um 12 UTC bis 18 um 12 UTC
Wind 10 kt aus Nord
Sichtweite 10 km oder mehr
keine Wolken unter 1500 m und keine Kumulonimbus oder Gewitterwolken

TAF: LFLY 171100Z 1712/1812 36010KT CAVOK

Wetterbeobachtungen und Prognosen von mehr als 4000 Flughäfen (METAR und TAF Bericht).

Die verfügbaren Stationen werden durch gelbe und rote Markierungen auf der Karte dargestellt.

Führen Sie die Maus auf sie, um den Namen der Station zu sehen.

Darauf klicken, um die Beobachtung von Wetterbeobachtungen und Prognosen zu sehen.

Um die Karte zu ändern : klicken Sie auf den grünen Tasten mit einem schwarzen Kreuz Zum Vergrößern, auf den grünen Button mit einem Gedankenstrich zu verkleinern, oder auf die grünen Pfeile für benachbarte Karten.


METAR-TAF: